createdAt,value
2022-12-05T00:01:39.502Z,1
2022-12-05T00:03:36.974Z,1
2022-12-05T00:05:37.153Z,1
2022-12-05T00:07:36.643Z,1
2022-12-05T00:09:37.077Z,1
2022-12-05T00:11:40.072Z,1
2022-12-05T00:13:36.496Z,1
2022-12-05T00:15:36.368Z,1
2022-12-05T00:17:36.719Z,1
2022-12-05T00:19:37.208Z,1
2022-12-05T00:21:40.535Z,1
2022-12-05T00:25:36.673Z,1
2022-12-05T00:27:40.359Z,1
2022-12-05T00:29:36.568Z,1
2022-12-05T00:31:37.963Z,1
2022-12-05T00:33:40.583Z,1
2022-12-05T00:35:36.961Z,1
2022-12-05T00:37:36.653Z,1
2022-12-05T00:39:37.149Z,1
2022-12-05T00:41:43.749Z,1
2022-12-05T00:43:36.561Z,1
2022-12-05T00:45:37.309Z,1
2022-12-05T00:47:40.703Z,1
2022-12-05T00:49:37.035Z,1
2022-12-05T00:51:36.756Z,1
2022-12-05T00:56:12.925Z,1
2022-12-05T00:57:36.648Z,1
2022-12-05T00:59:36.515Z,1
2022-12-05T01:01:37.208Z,1
2022-12-05T01:03:36.608Z,1
2022-12-05T01:05:40.271Z,1
2022-12-05T01:07:36.679Z,1
2022-12-05T01:09:43.728Z,1
2022-12-05T01:11:41.514Z,1
2022-12-05T01:13:40.618Z,1
2022-12-05T01:15:37.000Z,1
2022-12-05T01:17:36.966Z,1
2022-12-05T01:19:36.504Z,1
2022-12-05T01:21:42.804Z,1
2022-12-05T01:23:36.591Z,1
2022-12-05T01:25:37.101Z,1
2022-12-05T01:27:36.826Z,1
2022-12-05T01:31:39.711Z,1
2022-12-05T01:33:39.700Z,1
2022-12-05T01:35:36.578Z,1
2022-12-05T01:37:37.780Z,1
2022-12-05T01:39:40.505Z,1
2022-12-05T01:41:36.422Z,1
2022-12-05T01:43:36.615Z,1
2022-12-05T01:45:39.923Z,1
2022-12-05T01:47:36.641Z,1
2022-12-05T01:49:37.189Z,1
2022-12-05T01:51:40.239Z,1
2022-12-05T01:53:40.619Z,1
2022-12-05T01:55:36.412Z,1
2022-12-05T01:57:36.533Z,1
2022-12-05T01:59:37.238Z,1
2022-12-05T02:01:36.516Z,1
2022-12-05T02:03:36.468Z,1
2022-12-05T02:05:43.687Z,1
2022-12-05T02:07:36.519Z,1
2022-12-05T02:09:40.172Z,1
2022-12-05T02:11:36.476Z,1
2022-12-05T02:13:37.225Z,1
2022-12-05T02:15:36.610Z,1
2022-12-05T02:17:43.884Z,1
2022-12-05T02:19:36.375Z,1
2022-12-05T02:23:36.701Z,1
2022-12-05T02:25:36.459Z,1
2022-12-05T02:27:36.596Z,1
2022-12-05T02:29:36.719Z,1
2022-12-05T02:31:37.112Z,1
2022-12-05T02:33:43.667Z,1
2022-12-05T02:35:40.363Z,1
2022-12-05T02:37:36.575Z,1
2022-12-05T02:39:36.634Z,1
2022-12-05T02:41:46.875Z,1
2022-12-05T02:43:40.490Z,1
2022-12-05T02:45:36.525Z,1
2022-12-05T02:47:40.551Z,1
2022-12-05T02:49:36.605Z,1
2022-12-05T02:51:36.996Z,1
2022-12-05T02:53:43.246Z,1
2022-12-05T02:57:37.184Z,1
2022-12-05T02:59:40.552Z,1
2022-12-05T03:01:36.546Z,1
2022-12-05T03:03:36.888Z,1
2022-12-05T03:07:37.155Z,1
2022-12-05T03:09:36.496Z,1
2022-12-05T03:11:36.460Z,1
2022-12-05T03:13:37.435Z,1
2022-12-05T03:15:37.108Z,1
2022-12-05T03:17:37.000Z,1
2022-12-05T03:19:36.530Z,1
2022-12-05T03:21:37.283Z,1
2022-12-05T03:23:43.758Z,1
2022-12-05T03:25:36.481Z,1
2022-12-05T03:27:36.498Z,1
2022-12-05T03:29:37.277Z,1
2022-12-05T03:31:36.498Z,1
2022-12-05T03:33:40.134Z,1
2022-12-05T03:35:36.941Z,1
2022-12-05T03:37:43.865Z,1
2022-12-05T03:39:37.385Z,1
2022-12-05T03:41:43.655Z,1
2022-12-05T03:43:36.475Z,1
2022-12-05T03:45:37.234Z,1
2022-12-05T03:49:37.265Z,1
2022-12-05T03:51:37.181Z,1
2022-12-05T03:53:37.034Z,1
2022-12-05T03:55:40.139Z,1
2022-12-05T03:57:37.459Z,1
2022-12-05T03:59:40.249Z,1
2022-12-05T04:01:36.574Z,1
2022-12-05T04:03:40.174Z,1
2022-12-05T04:05:36.530Z,1
2022-12-05T04:07:36.543Z,1
2022-12-05T04:09:36.509Z,1
2022-12-05T04:11:37.062Z,1
2022-12-05T04:13:40.584Z,1
2022-12-05T04:15:43.822Z,1
2022-12-05T04:17:36.996Z,1
2022-12-05T04:19:40.610Z,1
2022-12-05T04:21:36.531Z,1
2022-12-05T04:23:43.535Z,1
2022-12-05T04:25:40.575Z,1
2022-12-05T04:27:36.493Z,1
2022-12-05T04:29:36.557Z,1
2022-12-05T04:31:36.531Z,1
2022-12-05T04:33:40.215Z,1
2022-12-05T04:35:36.528Z,1
2022-12-05T04:37:40.368Z,1
2022-12-05T04:39:36.411Z,1
2022-12-05T04:41:37.231Z,1
2022-12-05T04:43:43.744Z,1
2022-12-05T04:45:40.558Z,1
2022-12-05T04:47:36.497Z,1
2022-12-05T04:49:36.708Z,1
2022-12-05T04:51:36.538Z,1
2022-12-05T04:53:36.513Z,1
2022-12-05T04:55:37.212Z,1
2022-12-05T04:57:40.395Z,1
2022-12-05T04:59:36.398Z,1
2022-12-05T05:01:37.231Z,1
2022-12-05T05:03:37.199Z,1
2022-12-05T05:05:37.371Z,1
2022-12-05T05:07:37.245Z,1
2022-12-05T05:09:37.146Z,1
2022-12-05T05:11:37.304Z,1
2022-12-05T05:13:36.844Z,1
2022-12-05T05:15:37.028Z,1
2022-12-05T05:17:37.276Z,1
2022-12-05T05:19:43.644Z,1
2022-12-05T05:21:37.388Z,1
2022-12-05T05:23:40.425Z,1
2022-12-05T05:25:36.543Z,1
2022-12-05T05:27:40.486Z,1
2022-12-05T05:29:36.498Z,1
2022-12-05T05:31:36.510Z,1
2022-12-05T05:33:39.669Z,1
2022-12-05T05:35:36.417Z,1
2022-12-05T05:37:37.355Z,1
2022-12-05T05:39:37.077Z,1
2022-12-05T05:41:36.801Z,1
2022-12-05T05:43:40.605Z,1
2022-12-05T05:45:40.276Z,1
2022-12-05T05:47:40.274Z,1
2022-12-05T05:49:37.109Z,1
2022-12-05T05:51:43.703Z,1
2022-12-05T05:53:43.682Z,1
2022-12-05T05:55:36.996Z,1
2022-12-05T05:57:40.600Z,1
2022-12-05T05:59:36.513Z,1
2022-12-05T06:01:40.548Z,1
2022-12-05T06:03:40.896Z,0
2022-12-05T06:05:36.486Z,0
2022-12-05T06:07:43.768Z,0
2022-12-05T06:09:40.595Z,0
2022-12-05T06:13:36.817Z,0.2
2022-12-05T06:15:43.691Z,0.2
2022-12-05T06:17:36.400Z,0.3
2022-12-05T06:19:40.667Z,0.4
2022-12-05T06:21:36.545Z,0.4
2022-12-05T06:23:36.772Z,0.7
2022-12-05T06:25:37.271Z,1
2022-12-05T06:27:37.003Z,1.2
2022-12-05T06:29:40.649Z,1.9
2022-12-05T06:31:36.561Z,2.5
2022-12-05T06:33:40.632Z,3.3
2022-12-05T06:35:37.058Z,4.5
2022-12-05T06:37:43.770Z,6.4
2022-12-05T06:39:37.234Z,7.8
2022-12-05T06:41:37.247Z,9.5
2022-12-05T06:43:38.801Z,11.6
2022-12-05T06:45:37.288Z,14.9
2022-12-05T06:47:37.467Z,19.1
2022-12-05T06:49:37.994Z,24.5
2022-12-05T06:51:43.687Z,31.5
2022-12-05T06:53:36.534Z,34.8
2022-12-05T06:55:36.451Z,38.5
2022-12-05T06:57:37.257Z,34.8
2022-12-05T06:59:37.226Z,38.5
2022-12-05T07:01:36.829Z,44.7
2022-12-05T07:03:37.101Z,49.4
2022-12-05T07:05:36.691Z,60.3
2022-12-05T07:07:36.518Z,66.7
2022-12-05T07:09:36.527Z,70.1
2022-12-05T07:11:36.719Z,66.7
2022-12-05T07:13:37.419Z,63.4
2022-12-05T07:15:43.731Z,66.7
2022-12-05T07:17:37.301Z,70.1
2022-12-05T07:19:43.405Z,70.1
2022-12-05T07:21:36.655Z,73.7
2022-12-05T07:23:36.549Z,73.7
2022-12-05T07:25:36.155Z,81.5
2022-12-05T07:27:36.450Z,85.6
2022-12-05T07:29:36.534Z,94.6
2022-12-05T07:31:37.154Z,104.6
2022-12-05T07:33:43.735Z,121.5
2022-12-05T07:35:37.097Z,127.7
2022-12-05T07:37:40.360Z,127.7
2022-12-05T07:39:36.537Z,148.4
2022-12-05T07:41:37.453Z,164
2022-12-05T07:43:40.316Z,172.4
2022-12-05T07:47:40.064Z,210.6
2022-12-05T07:49:36.517Z,232.8
2022-12-05T07:51:36.572Z,221.4
2022-12-05T07:53:37.110Z,257.2
2022-12-05T07:55:37.164Z,244.7
2022-12-05T07:57:37.190Z,244.7
2022-12-05T07:59:36.550Z,257.2
2022-12-05T08:01:37.395Z,257.2
2022-12-05T08:03:37.044Z,257.2
2022-12-05T08:05:40.567Z,270.4
2022-12-05T08:07:40.396Z,298.9
2022-12-05T08:09:37.372Z,330.3
2022-12-05T08:11:36.553Z,330.3
2022-12-05T08:13:40.583Z,383.8
2022-12-05T08:15:37.534Z,424.1
2022-12-05T08:17:36.508Z,424.1
2022-12-05T08:19:40.250Z,424.1
2022-12-05T08:21:40.155Z,424.1
2022-12-05T08:23:36.515Z,424.1
2022-12-05T08:25:37.567Z,403.4
2022-12-05T08:27:36.556Z,403.4
2022-12-05T08:29:43.683Z,403.4
2022-12-05T08:31:40.432Z,403.4
2022-12-05T08:33:36.545Z,424.1
2022-12-05T08:35:36.707Z,445.9
2022-12-05T08:37:40.603Z,445.9
2022-12-05T08:39:39.707Z,518
2022-12-05T08:43:36.470Z,699.2
2022-12-05T08:45:37.172Z,735.1
2022-12-05T08:47:37.308Z,772.8
2022-12-05T08:49:37.267Z,772.8
2022-12-05T08:51:43.747Z,772.8
2022-12-05T08:53:44.519Z,772.8
2022-12-05T08:57:43.771Z,699.2
2022-12-05T08:59:36.537Z,699.2
2022-12-05T09:01:40.772Z,665.1
2022-12-05T09:03:44.725Z,665.1
2022-12-05T09:05:40.580Z,699.2
2022-12-05T09:07:36.657Z,665.1
2022-12-05T09:09:36.507Z,632.7
2022-12-05T09:11:36.631Z,601.8
2022-12-05T09:13:40.494Z,632.7
2022-12-05T09:15:43.734Z,632.7
2022-12-05T09:17:40.278Z,665.1
2022-12-05T09:19:36.449Z,699.2
2022-12-05T09:21:37.040Z,699.2
2022-12-05T09:23:36.744Z,699.2
2022-12-05T09:25:37.338Z,699.2
2022-12-05T09:27:39.984Z,699.2
2022-12-05T09:29:37.109Z,699.2
2022-12-05T09:31:36.683Z,665.1
2022-12-05T09:33:40.406Z,665.1
2022-12-05T09:35:40.154Z,699.2
2022-12-05T09:39:37.136Z,735.1
2022-12-05T09:41:37.089Z,772.8
2022-12-05T09:43:37.032Z,772.8
2022-12-05T09:45:40.652Z,735.1
2022-12-05T09:47:40.589Z,735.1
2022-12-05T09:49:36.515Z,735.1
2022-12-05T09:51:36.969Z,772.8
2022-12-05T09:53:37.098Z,812.4
2022-12-05T09:57:37.351Z,772.8
2022-12-05T09:59:36.542Z,735.1
2022-12-05T10:01:36.871Z,665.1
2022-12-05T10:03:37.165Z,601.8
2022-12-05T10:05:40.626Z,572.5
2022-12-05T10:07:36.636Z,544.6
2022-12-05T10:09:37.321Z,544.6
2022-12-05T10:11:40.585Z,544.6
2022-12-05T10:13:36.544Z,518
2022-12-05T10:15:43.830Z,518
2022-12-05T10:17:36.647Z,544.6
2022-12-05T10:19:37.106Z,572.5
2022-12-05T10:21:37.545Z,572.5
2022-12-05T10:23:56.352Z,632.7
2022-12-05T10:25:37.376Z,735.1
2022-12-05T10:27:43.345Z,854.1
2022-12-05T10:29:36.534Z,943.9
2022-12-05T10:31:36.833Z,1096.6
2022-12-05T10:33:39.960Z,1152.9
2022-12-05T10:35:37.177Z,1274.1
2022-12-05T10:37:40.643Z,1636
2022-12-05T10:39:43.744Z,1998.2
2022-12-05T10:41:36.636Z,1998.2
2022-12-05T10:43:36.770Z,1719.9
2022-12-05T10:45:36.600Z,1556.2
2022-12-05T10:47:37.392Z,1636
2022-12-05T10:49:36.654Z,1900.7
2022-12-05T10:51:37.783Z,1998.2
2022-12-05T10:53:36.527Z,1998.2
2022-12-05T10:55:37.246Z,1998.2
2022-12-05T10:57:40.392Z,1636
2022-12-05T10:59:37.119Z,1480.3
2022-12-05T11:01:37.120Z,1408.1
2022-12-05T11:03:43.832Z,1480.3
2022-12-05T11:05:40.396Z,1556.2
2022-12-05T11:07:42.947Z,1636
2022-12-05T11:09:36.624Z,1636
2022-12-05T11:11:37.195Z,1556.2
2022-12-05T11:13:36.493Z,1480.3
2022-12-05T11:15:40.569Z,1480.3
2022-12-05T11:17:37.106Z,1556.2
2022-12-05T11:19:37.308Z,1719.9
2022-12-05T11:21:37.200Z,1636
2022-12-05T11:23:36.579Z,1480.3
2022-12-05T11:25:37.091Z,1339.4
2022-12-05T11:27:40.703Z,1274.1
2022-12-05T11:29:39.796Z,1152.9
2022-12-05T11:31:36.517Z,1096.6
2022-12-05T11:33:36.557Z,992.3
2022-12-05T11:35:37.200Z,854.1
2022-12-05T11:37:36.721Z,897.8
2022-12-05T11:39:36.556Z,1096.6
2022-12-05T11:41:36.739Z,1152.9
2022-12-05T11:43:36.573Z,1043.1
2022-12-05T11:45:36.597Z,992.3
2022-12-05T11:47:40.716Z,897.8
2022-12-05T11:49:39.912Z,854.1
2022-12-05T11:51:39.955Z,735.1
2022-12-05T11:53:43.825Z,735.1
2022-12-05T11:55:40.584Z,772.8
2022-12-05T11:57:39.736Z,812.4
2022-12-05T11:59:36.565Z,812.4
2022-12-05T12:01:43.742Z,854.1
2022-12-05T12:03:36.980Z,854.1
2022-12-05T12:05:39.777Z,812.4
2022-12-05T12:07:43.985Z,735.1
2022-12-05T12:09:37.101Z,665.1
2022-12-05T12:11:36.588Z,632.7
2022-12-05T12:13:36.567Z,699.2
2022-12-05T12:15:40.656Z,735.1
2022-12-05T12:17:37.158Z,772.8
2022-12-05T12:19:43.630Z,735.1
2022-12-05T12:21:38.672Z,699.2
2022-12-05T12:23:39.914Z,699.2
2022-12-05T12:25:37.340Z,735.1
2022-12-05T12:27:36.652Z,812.4
2022-12-05T12:29:43.654Z,812.4
2022-12-05T12:31:36.612Z,735.1
2022-12-05T12:33:36.585Z,665.1
2022-12-05T12:35:39.603Z,632.7
2022-12-05T12:39:36.466Z,601.8
2022-12-05T12:41:37.121Z,572.5
2022-12-05T12:43:53.054Z,632.7
2022-12-05T12:45:39.797Z,572.5
2022-12-05T12:47:36.531Z,572.5
2022-12-05T12:49:36.540Z,632.7
2022-12-05T12:51:37.431Z,699.2
2022-12-05T12:53:40.143Z,735.1
2022-12-05T12:55:36.617Z,699.2
2022-12-05T12:57:40.628Z,601.8
2022-12-05T12:59:36.769Z,601.8
2022-12-05T13:01:36.626Z,632.7
2022-12-05T13:03:37.139Z,665.1
2022-12-05T13:05:36.687Z,665.1
2022-12-05T13:07:37.457Z,699.2
2022-12-05T13:09:37.277Z,812.4
2022-12-05T13:11:36.693Z,897.8
2022-12-05T13:13:40.628Z,943.9
2022-12-05T13:15:36.680Z,897.8
2022-12-05T13:17:40.205Z,854.1
2022-12-05T13:19:36.605Z,812.4
2022-12-05T13:21:36.582Z,812.4
2022-12-05T13:23:40.382Z,772.8
2022-12-05T13:25:37.035Z,699.2
2022-12-05T13:27:39.713Z,601.8
2022-12-05T13:29:40.642Z,544.6
2022-12-05T13:33:36.583Z,468.7
2022-12-05T13:35:37.179Z,468.7
2022-12-05T13:39:36.544Z,601.8
2022-12-05T13:41:36.565Z,699.2
2022-12-05T13:43:36.763Z,772.8
2022-12-05T13:45:43.357Z,854.1
2022-12-05T13:47:37.356Z,897.8
2022-12-05T13:49:40.442Z,854.1
2022-12-05T13:51:40.551Z,772.8
2022-12-05T13:53:36.629Z,665.1
2022-12-05T13:55:40.593Z,572.5
2022-12-05T13:59:36.570Z,468.7
2022-12-05T14:01:44.858Z,445.9
2022-12-05T14:03:37.029Z,468.7
2022-12-05T14:05:36.507Z,468.7
2022-12-05T14:07:36.671Z,445.9
2022-12-05T14:09:40.609Z,403.4
2022-12-05T14:11:37.530Z,383.8
2022-12-05T14:13:40.749Z,383.8
2022-12-05T14:15:40.426Z,403.4
2022-12-05T14:17:40.291Z,403.4
2022-12-05T14:19:37.166Z,365
2022-12-05T14:21:36.525Z,284.3
2022-12-05T14:23:40.738Z,221.4
2022-12-05T14:27:36.631Z,181.3
2022-12-05T14:29:40.498Z,164
2022-12-05T14:31:37.351Z,164
2022-12-05T14:33:40.434Z,164
2022-12-05T14:35:36.461Z,190.6
2022-12-05T14:37:36.790Z,221.4
2022-12-05T14:39:36.868Z,210.6
2022-12-05T14:41:37.309Z,190.6
2022-12-05T14:43:37.086Z,164
2022-12-05T14:45:40.785Z,156
2022-12-05T14:47:40.800Z,148.4
2022-12-05T14:49:38.029Z,115.6
2022-12-05T14:51:36.795Z,85.6
2022-12-05T14:53:36.904Z,60.3
2022-12-05T14:55:37.162Z,42.5
2022-12-05T14:57:36.639Z,40.4
2022-12-05T14:59:40.187Z,51.9
2022-12-05T15:01:37.583Z,51.9
2022-12-05T15:03:37.386Z,40.4
2022-12-05T15:05:40.494Z,34.8
2022-12-05T15:07:37.373Z,31.5
2022-12-05T15:09:38.132Z,30
2022-12-05T15:11:40.643Z,27.1
2022-12-05T15:13:36.569Z,25.8
2022-12-05T15:15:37.248Z,22.2
2022-12-05T15:17:37.560Z,20.1
2022-12-05T15:19:37.067Z,18.2
2022-12-05T15:21:36.749Z,17.3
2022-12-05T15:23:37.291Z,16.4
2022-12-05T15:25:37.174Z,14.2
2022-12-05T15:27:36.658Z,12.2
2022-12-05T15:29:36.783Z,10
2022-12-05T15:31:36.614Z,9
2022-12-05T15:33:40.244Z,7.8
2022-12-05T15:35:36.628Z,6.4
2022-12-05T15:37:40.772Z,5.2
2022-12-05T15:39:36.613Z,4.5
2022-12-05T15:41:37.399Z,3.9
2022-12-05T15:43:40.591Z,3
2022-12-05T15:47:36.570Z,1.8
2022-12-05T15:49:40.033Z,1.3
2022-12-05T15:51:40.377Z,1
2022-12-05T15:53:40.642Z,0.7
2022-12-05T15:55:36.602Z,0.5
2022-12-05T15:57:36.568Z,0.3
2022-12-05T15:59:37.211Z,0.1
2022-12-05T16:01:36.636Z,0.1
2022-12-05T16:03:43.795Z,0
2022-12-05T16:05:40.280Z,0
2022-12-05T16:07:39.855Z,0
2022-12-05T16:09:36.572Z,0
2022-12-05T16:11:36.578Z,1
2022-12-05T16:13:40.602Z,1
2022-12-05T16:15:40.604Z,1
2022-12-05T16:17:36.845Z,1
2022-12-05T16:19:40.547Z,1
2022-12-05T16:21:43.691Z,1
2022-12-05T16:23:36.817Z,1
2022-12-05T16:25:36.579Z,1
2022-12-05T16:27:37.474Z,1
2022-12-05T16:29:37.070Z,1
2022-12-05T16:31:40.580Z,1
2022-12-05T16:33:40.254Z,1
2022-12-05T16:35:43.709Z,1
2022-12-05T16:37:36.652Z,1
2022-12-05T16:39:40.421Z,1
2022-12-05T16:41:40.504Z,1
2022-12-05T16:43:37.233Z,1
2022-12-05T16:45:37.540Z,1
2022-12-05T16:47:36.638Z,1
2022-12-05T16:49:40.161Z,1
2022-12-05T16:51:39.778Z,1
2022-12-05T16:53:40.546Z,1
2022-12-05T16:55:37.206Z,1
2022-12-05T16:57:40.802Z,1
2022-12-05T16:59:36.612Z,1
2022-12-05T17:01:38.850Z,1
2022-12-05T17:03:36.818Z,1
2022-12-05T17:05:36.645Z,1
2022-12-05T17:07:40.847Z,1
2022-12-05T17:09:40.616Z,1
2022-12-05T17:11:40.526Z,1
2022-12-05T17:13:37.259Z,1
2022-12-05T17:15:40.608Z,1
2022-12-05T17:17:37.314Z,1
2022-12-05T17:19:36.607Z,1
2022-12-05T17:21:37.335Z,1
2022-12-05T17:23:44.527Z,1
2022-12-05T17:25:40.538Z,1
2022-12-05T17:27:43.994Z,1
2022-12-05T17:29:36.603Z,1
2022-12-05T17:31:37.246Z,1
2022-12-05T17:33:40.637Z,1
2022-12-05T17:35:37.358Z,1
2022-12-05T17:37:37.567Z,1
2022-12-05T17:39:36.744Z,1
2022-12-05T17:41:36.724Z,1
2022-12-05T17:43:36.859Z,1
2022-12-05T17:45:37.585Z,1
2022-12-05T17:47:56.294Z,1
2022-12-05T17:49:55.741Z,1
2022-12-05T17:53:55.170Z,1
2022-12-05T17:55:51.891Z,1
2022-12-05T17:57:51.730Z,1
2022-12-05T17:59:55.681Z,1
2022-12-05T18:01:51.082Z,1
2022-12-05T18:03:53.134Z,1
2022-12-05T18:05:55.763Z,1
2022-12-05T18:07:55.106Z,1
2022-12-05T18:09:51.804Z,1
2022-12-05T18:11:51.999Z,1
2022-12-05T18:13:54.542Z,1
2022-12-05T18:15:51.834Z,1
2022-12-05T18:17:54.969Z,1
2022-12-05T18:19:55.332Z,1
2022-12-05T18:21:51.742Z,1
2022-12-05T18:23:51.322Z,1
2022-12-05T18:25:51.738Z,1
2022-12-05T18:27:55.794Z,1
2022-12-05T18:29:51.113Z,1
2022-12-05T18:31:55.656Z,1
2022-12-05T18:33:51.517Z,1
2022-12-05T18:35:52.031Z,1
2022-12-05T18:37:52.062Z,1
2022-12-05T18:39:55.722Z,1
2022-12-05T18:43:51.289Z,1
2022-12-05T18:45:58.683Z,1
2022-12-05T18:47:52.797Z,1
2022-12-05T18:49:51.443Z,1
2022-12-05T18:51:51.099Z,1
2022-12-05T18:53:54.914Z,1
2022-12-05T18:56:13.305Z,1
2022-12-05T18:57:58.438Z,1
2022-12-05T18:59:51.822Z,1
2022-12-05T19:01:55.714Z,1
2022-12-05T19:03:51.574Z,1
2022-12-05T19:05:56.810Z,1
2022-12-05T19:07:52.067Z,1
2022-12-05T19:09:52.018Z,1
2022-12-05T19:11:55.733Z,1
2022-12-05T19:13:55.699Z,1
2022-12-05T19:15:52.194Z,1
2022-12-05T19:17:56.258Z,1
2022-12-05T19:19:51.857Z,1
2022-12-05T19:21:51.174Z,1
2022-12-05T19:23:52.017Z,1
2022-12-05T19:25:58.871Z,1
2022-12-05T19:27:51.354Z,1
2022-12-05T19:29:52.071Z,1
2022-12-05T19:31:59.003Z,1
2022-12-05T19:33:51.706Z,1
2022-12-05T19:35:52.044Z,1
2022-12-05T19:37:56.218Z,1
2022-12-05T19:39:51.776Z,1
2022-12-05T19:41:52.291Z,1
2022-12-05T19:43:51.987Z,1
2022-12-05T19:45:55.318Z,1
2022-12-05T19:47:55.734Z,1
2022-12-05T19:49:51.134Z,1
2022-12-05T19:51:51.881Z,1
2022-12-05T19:53:52.154Z,1
2022-12-05T19:55:51.809Z,1
2022-12-05T19:57:51.910Z,1
2022-12-05T19:59:52.075Z,1
2022-12-05T20:01:51.968Z,1
2022-12-05T20:03:51.874Z,1
2022-12-05T20:05:53.190Z,1
2022-12-05T20:07:58.884Z,1
2022-12-05T20:09:51.087Z,1
2022-12-05T20:11:54.965Z,1
2022-12-05T20:13:57.580Z,1
2022-12-05T20:15:58.445Z,1
2022-12-05T20:17:53.242Z,1
2022-12-05T20:19:51.228Z,1
2022-12-05T20:21:59.015Z,1
2022-12-05T20:23:55.874Z,1
2022-12-05T20:25:51.762Z,1
2022-12-05T20:27:51.723Z,1
2022-12-05T20:29:55.907Z,1
2022-12-05T20:31:55.483Z,1
2022-12-05T20:33:51.247Z,1
2022-12-05T20:35:52.131Z,1
2022-12-05T20:37:51.578Z,1
2022-12-05T20:39:52.080Z,1
2022-12-05T20:41:58.970Z,1
2022-12-05T20:43:51.782Z,1
2022-12-05T20:45:59.158Z,1
2022-12-05T20:47:51.180Z,1
2022-12-05T20:49:51.977Z,1
2022-12-05T20:51:54.714Z,1
2022-12-05T20:53:51.960Z,1
2022-12-05T20:55:55.778Z,1
2022-12-05T20:57:51.085Z,1
2022-12-05T20:59:51.968Z,1
2022-12-05T21:01:51.803Z,1
2022-12-05T21:03:52.166Z,1
2022-12-05T21:05:55.807Z,1
2022-12-05T21:07:55.038Z,1
2022-12-05T21:09:56.095Z,1
2022-12-05T21:11:55.210Z,1
2022-12-05T21:13:58.899Z,1
2022-12-05T21:15:51.269Z,1
2022-12-05T21:17:51.298Z,1
2022-12-05T21:19:55.362Z,1
2022-12-05T21:21:52.170Z,1
2022-12-05T21:23:51.843Z,1
2022-12-05T21:25:52.148Z,1
2022-12-05T21:27:51.248Z,1
2022-12-05T21:29:59.558Z,1
2022-12-05T21:31:51.564Z,1
2022-12-05T21:33:51.183Z,1
2022-12-05T21:35:51.313Z,1
2022-12-05T21:37:51.222Z,1
2022-12-05T21:40:02.089Z,1
2022-12-05T21:43:54.824Z,1
2022-12-05T21:45:52.998Z,1
2022-12-05T21:47:51.816Z,1
2022-12-05T21:49:51.272Z,1
2022-12-05T21:51:51.883Z,1
2022-12-05T21:53:51.925Z,1
2022-12-05T21:55:51.327Z,1
2022-12-05T21:57:51.430Z,0
2022-12-05T21:59:53.083Z,1
2022-12-05T22:01:51.784Z,1
2022-12-05T22:03:51.810Z,1
2022-12-05T22:05:51.878Z,1
2022-12-05T22:07:51.703Z,1
2022-12-05T22:09:55.667Z,1
2022-12-05T22:11:55.799Z,1
2022-12-05T22:13:51.349Z,1
2022-12-05T22:15:51.236Z,1
2022-12-05T22:17:55.157Z,1
2022-12-05T22:19:51.246Z,1
2022-12-05T22:21:51.333Z,1
2022-12-05T22:23:52.028Z,1
2022-12-05T22:25:54.760Z,1
2022-12-05T22:27:52.157Z,1
2022-12-05T22:29:52.905Z,1
2022-12-05T22:31:54.995Z,1
2022-12-05T22:33:51.227Z,1
2022-12-05T22:35:51.908Z,1
2022-12-05T22:37:51.242Z,1
2022-12-05T22:39:52.365Z,1
2022-12-05T22:41:51.970Z,1
2022-12-05T22:43:52.545Z,1
2022-12-05T22:45:51.718Z,1
2022-12-05T22:47:52.010Z,1
2022-12-05T22:49:51.783Z,1
2022-12-05T22:51:51.641Z,1
2022-12-05T22:53:55.823Z,1
2022-12-05T22:55:54.923Z,1
2022-12-05T22:57:51.874Z,1
2022-12-05T22:59:52.183Z,1
2022-12-05T23:01:54.974Z,1
2022-12-05T23:03:51.724Z,0
2022-12-05T23:05:55.698Z,1
2022-12-05T23:07:57.592Z,1
2022-12-05T23:09:52.132Z,1
2022-12-05T23:11:51.272Z,1
2022-12-05T23:13:59.889Z,1
2022-12-05T23:15:51.724Z,1
2022-12-05T23:17:58.754Z,1
2022-12-05T23:19:55.332Z,1
2022-12-05T23:21:52.139Z,1
2022-12-05T23:23:55.844Z,1
2022-12-05T23:25:51.944Z,1
2022-12-05T23:27:55.762Z,1
2022-12-05T23:29:52.178Z,1
2022-12-05T23:31:51.328Z,1
2022-12-05T23:33:59.810Z,1
2022-12-05T23:35:51.577Z,1
2022-12-05T23:37:51.378Z,1
2022-12-05T23:39:52.036Z,1
2022-12-05T23:41:51.848Z,1
2022-12-05T23:43:55.583Z,1
2022-12-05T23:45:51.795Z,1
2022-12-05T23:47:51.168Z,1
2022-12-05T23:49:54.075Z,1
2022-12-05T23:51:51.754Z,1
2022-12-05T23:53:51.858Z,1
2022-12-05T23:55:51.537Z,1
2022-12-05T23:57:51.656Z,1
